Time;durP1;ratioP1;P1;durP2;ratioP2;P2;SDS_P1;SDS_P2;PMS_P1;PMS_P2;Temp;Humidity;BMP_temperature;BMP_pressure;BME280_temperature;BME280_humidity;BME280_pressure;Samples;Min_cycle;Max_cycle;Signal;HPM_P1;HPM_P2
2023/10/23 00:01:40;;;;;;;2.58;1.13;;;;;;;;;;5022842;28;20177;-43
2023/10/23 00:04:06;;;;;;;1.48;0.85;;;;;;;;;;5030842;28;20416;-43
2023/10/23 00:06:33;;;;;;;3.22;1.00;;;;;;;;;;5033845;28;20187;-43
2023/10/23 00:08:59;;;;;;;3.00;1.30;;;;;;;;;;5024994;28;20191;-43
2023/10/23 00:11:26;;;;;;;1.60;0.88;;;;;;;;;;5032802;28;20480;-43
2023/10/23 00:13:52;;;;;;;2.40;1.30;;;;;;;;;;5030461;28;20223;-43
2023/10/23 00:16:21;;;;;;;2.70;0.88;;;;;;;;;;5032536;28;20230;-43
2023/10/23 00:18:48;;;;;;;3.90;0.98;;;;;;;;;;5032797;28;20511;-43
2023/10/23 00:21:14;;;;;;;7.70;1.30;;;;;;;;;;5030912;28;20934;-43
2023/10/23 00:23:40;;;;;;;2.83;1.10;;;;;;;;;;5026830;28;20212;-43
2023/10/23 00:26:06;;;;;;;2.75;1.13;;;;;;;;;;5030361;28;20215;-43
2023/10/23 00:28:32;;;;;;;6.45;1.15;;;;;;;;;;5031671;28;20188;-43
2023/10/23 00:30:59;;;;;;;3.08;1.10;;;;;;;;;;5034485;28;20264;-43
2023/10/23 00:33:25;;;;;;;3.00;1.10;;;;;;;;;;5025123;28;20192;-43
2023/10/23 00:35:51;;;;;;;1.90;0.85;;;;;;;;;;5028997;28;20262;-43
2023/10/23 00:38:17;;;;;;;1.52;0.80;;;;;;;;;;5028224;28;20212;-43
2023/10/23 00:40:43;;;;;;;4.35;0.93;;;;;;;;;;5025530;28;20202;-43
2023/10/23 00:43:19;;;;;;;5.63;1.25;;;;;;;;;;5031125;28;20283;-43
2023/10/23 00:45:49;;;;;;;3.92;1.20;;;;;;;;;;5035380;28;20237;-43
2023/10/23 00:48:15;;;;;;;3.10;0.95;;;;;;;;;;5030409;28;20583;-43
2023/10/23 00:50:41;;;;;;;3.70;1.27;;;;;;;;;;5024649;28;20218;-43
2023/10/23 00:53:07;;;;;;;2.72;1.20;;;;;;;;;;5035194;28;20280;-43
2023/10/23 00:55:34;;;;;;;1.85;0.80;;;;;;;;;;5036238;28;20175;-43
2023/10/23 00:58:00;;;;;;;2.30;1.02;;;;;;;;;;5031293;28;20176;-43
2023/10/23 01:00:26;;;;;;;3.90;1.00;;;;;;;;;;5022065;28;20204;-43
2023/10/23 01:02:52;;;;;;;1.95;0.88;;;;;;;;;;5023520;28;20263;-43
2023/10/23 01:05:18;;;;;;;1.88;1.15;;;;;;;;;;5033020;28;20420;-43
2023/10/23 01:07:43;;;;;;;1.50;1.00;;;;;;;;;;5032595;28;20278;-43
2023/10/23 01:10:09;;;;;;;1.63;1.10;;;;;;;;;;5023710;28;20294;-43
2023/10/23 01:12:35;;;;;;;2.47;0.95;;;;;;;;;;5030098;28;20299;-43
2023/10/23 01:15:01;;;;;;;2.53;1.13;;;;;;;;;;5027335;28;20551;-43
2023/10/23 01:17:27;;;;;;;3.60;1.30;;;;;;;;;;5028351;28;20554;-43
2023/10/23 01:19:53;;;;;;;1.75;1.00;;;;;;;;;;5020730;28;20223;-43
2023/10/23 01:22:19;;;;;;;2.38;0.80;;;;;;;;;;5021305;28;20216;-43
2023/10/23 01:24:45;;;;;;;3.60;1.20;;;;;;;;;;5019905;28;20192;-43
2023/10/23 01:27:11;;;;;;;3.35;1.17;;;;;;;;;;5024578;28;20500;-43
2023/10/23 01:29:37;;;;;;;1.90;0.90;;;;;;;;;;5027044;28;20207;-43
2023/10/23 01:32:03;;;;;;;2.60;1.00;;;;;;;;;;5028292;28;20212;-43
2023/10/23 01:34:29;;;;;;;2.40;1.00;;;;;;;;;;5025040;28;20177;-43
2023/10/23 01:36:55;;;;;;;4.80;1.35;;;;;;;;;;5028807;28;20190;-43
2023/10/23 01:39:22;;;;;;;2.88;1.00;;;;;;;;;;5026654;28;20176;-43
2023/10/23 01:41:48;;;;;;;3.15;1.10;;;;;;;;;;5033201;28;20206;-43
2023/10/23 01:44:14;;;;;;;2.60;0.90;;;;;;;;;;5025046;28;20547;-44
2023/10/23 01:46:40;;;;;;;3.08;1.13;;;;;;;;;;5031240;28;20181;-43
2023/10/23 01:49:05;;;;;;;1.48;1.00;;;;;;;;;;5027146;28;20267;-43
2023/10/23 01:51:32;;;;;;;2.35;1.00;;;;;;;;;;5034148;28;20198;-43
2023/10/23 01:53:57;;;;;;;2.13;1.00;;;;;;;;;;5025965;28;20180;-43
2023/10/23 01:56:23;;;;;;;2.13;1.02;;;;;;;;;;5034858;28;20187;-43
2023/10/23 01:58:51;;;;;;;3.05;1.20;;;;;;;;;;5026837;28;20187;-43
2023/10/23 02:01:22;;;;;;;1.98;1.00;;;;;;;;;;5030407;28;20462;-43
2023/10/23 02:03:48;;;;;;;1.40;0.88;;;;;;;;;;5030254;28;20186;-43
2023/10/23 02:06:13;;;;;;;3.15;1.02;;;;;;;;;;5034553;28;20179;-43
2023/10/23 02:08:39;;;;;;;3.08;1.00;;;;;;;;;;5026468;28;20184;-43
2023/10/23 02:11:07;;;;;;;3.72;0.98;;;;;;;;;;5029759;28;20330;-43
2023/10/23 02:13:34;;;;;;;1.67;0.90;;;;;;;;;;5029211;28;20261;-43
2023/10/23 02:16:00;;;;;;;3.85;1.02;;;;;;;;;;5033633;28;20176;-43
2023/10/23 02:18:26;;;;;;;4.55;1.15;;;;;;;;;;5024094;28;20177;-43
2023/10/23 02:20:52;;;;;;;3.60;1.10;;;;;;;;;;5024802;28;20184;-43
2023/10/23 02:23:18;;;;;;;3.28;1.33;;;;;;;;;;5029301;28;20242;-43
2023/10/23 02:25:44;;;;;;;3.63;1.20;;;;;;;;;;5022807;28;20196;-43
2023/10/23 02:28:09;;;;;;;2.80;1.10;;;;;;;;;;5032202;28;20191;-44
2023/10/23 02:30:36;;;;;;;5.68;1.75;;;;;;;;;;5028843;28;20184;-43
2023/10/23 02:33:02;;;;;;;4.95;1.13;;;;;;;;;;5033431;28;20207;-43
2023/10/23 02:35:28;;;;;;;2.15;1.08;;;;;;;;;;5031567;28;20188;-43
2023/10/23 02:37:54;;;;;;;1.58;1.00;;;;;;;;;;5030487;28;20183;-43
2023/10/23 02:40:20;;;;;;;3.42;1.23;;;;;;;;;;5017415;28;20573;-43
2023/10/23 02:42:46;;;;;;;3.45;1.40;;;;;;;;;;5030519;28;20187;-43
2023/10/23 02:45:13;;;;;;;3.50;1.23;;;;;;;;;;5033095;28;20192;-43
2023/10/23 02:47:39;;;;;;;6.28;1.40;;;;;;;;;;5034384;28;20175;-43
2023/10/23 02:50:06;;;;;;;3.05;1.30;;;;;;;;;;5027135;28;20457;-43
2023/10/23 02:52:31;;;;;;;3.00;1.02;;;;;;;;;;5033943;28;20219;-43
2023/10/23 02:54:57;;;;;;;2.63;1.42;;;;;;;;;;5026336;28;20194;-43
2023/10/23 02:57:24;;;;;;;3.40;1.40;;;;;;;;;;5032313;28;20195;-43
2023/10/23 02:59:50;;;;;;;3.22;1.40;;;;;;;;;;5028754;28;20238;-43
2023/10/23 03:02:19;;;;;;;3.47;1.00;;;;;;;;;;5026719;28;20558;-43
2023/10/23 03:04:45;;;;;;;2.47;0.90;;;;;;;;;;5023169;28;20912;-43
2023/10/23 03:07:11;;;;;;;0.90;0.80;;;;;;;;;;5033734;28;20348;-43
2023/10/23 03:09:37;;;;;;;3.35;1.17;;;;;;;;;;5025189;28;20196;-43
2023/10/23 03:12:03;;;;;;;2.42;1.13;;;;;;;;;;5031858;28;20203;-43
2023/10/23 03:14:29;;;;;;;2.20;0.82;;;;;;;;;;5024807;28;20172;-43
2023/10/23 03:16:55;;;;;;;4.13;1.38;;;;;;;;;;5026138;28;20551;-43
2023/10/23 03:19:24;;;;;;;1.63;1.00;;;;;;;;;;5021089;28;20175;-43
2023/10/23 03:21:50;;;;;;;3.28;1.00;;;;;;;;;;5028065;28;20180;-43
2023/10/23 03:24:16;;;;;;;2.92;1.23;;;;;;;;;;5024422;28;20570;-43
2023/10/23 03:26:42;;;;;;;2.42;1.13;;;;;;;;;;5023918;28;20188;-43
2023/10/23 03:29:08;;;;;;;3.53;1.30;;;;;;;;;;5029543;28;20192;-44
2023/10/23 03:31:34;;;;;;;2.47;1.30;;;;;;;;;;5029313;28;20180;-43
2023/10/23 03:34:00;;;;;;;2.38;1.17;;;;;;;;;;5032015;28;20330;-43
2023/10/23 03:36:26;;;;;;;2.22;1.08;;;;;;;;;;5026262;28;20186;-43
2023/10/23 03:38:54;;;;;;;1.75;1.23;;;;;;;;;;5023587;28;20259;-43
2023/10/23 03:41:20;;;;;;;1.05;0.90;;;;;;;;;;5025237;28;20239;-43
2023/10/23 03:43:45;;;;;;;3.40;1.20;;;;;;;;;;5022642;28;20180;-43
2023/10/23 03:46:11;;;;;;;3.13;1.27;;;;;;;;;;5030815;28;20547;-43
2023/10/23 03:48:37;;;;;;;7.40;2.33;;;;;;;;;;5032550;28;20225;-43
2023/10/23 03:51:03;;;;;;;3.70;1.63;;;;;;;;;;5020328;28;20184;-43
2023/10/23 03:53:30;;;;;;;9.48;3.30;;;;;;;;;;5031344;28;20223;-43
2023/10/23 03:55:56;;;;;;;15.23;2.95;;;;;;;;;;5020643;28;20464;-43
2023/10/23 03:58:22;;;;;;;13.88;2.67;;;;;;;;;;5027526;28;20184;-43
2023/10/23 04:00:51;;;;;;;15.52;2.58;;;;;;;;;;5024438;28;20234;-43
2023/10/23 04:03:17;;;;;;;11.65;2.92;;;;;;;;;;5026655;28;20274;-43
2023/10/23 04:05:43;;;;;;;10.52;2.63;;;;;;;;;;5027389;28;20567;-43
2023/10/23 04:08:09;;;;;;;8.88;2.33;;;;;;;;;;5031260;28;20194;-43
2023/10/23 04:10:35;;;;;;;13.98;2.63;;;;;;;;;;5029990;28;20191;-43
2023/10/23 04:13:02;;;;;;;10.27;2.35;;;;;;;;;;5031754;28;20270;-43
2023/10/23 04:15:28;;;;;;;7.57;2.15;;;;;;;;;;5025907;28;20183;-43
2023/10/23 04:17:54;;;;;;;7.80;2.28;;;;;;;;;;5030935;28;20239;-43
2023/10/23 04:20:20;;;;;;;6.25;2.28;;;;;;;;;;5032063;28;20275;-43
2023/10/23 04:22:46;;;;;;;7.70;2.22;;;;;;;;;;5033839;28;20259;-43
2023/10/23 04:25:12;;;;;;;5.40;2.42;;;;;;;;;;5020512;28;20443;-43
2023/10/23 04:27:37;;;;;;;5.60;2.70;;;;;;;;;;5023251;28;20259;-43
2023/10/23 04:30:04;;;;;;;6.55;1.85;;;;;;;;;;5021366;28;20188;-43
2023/10/23 04:32:30;;;;;;;3.28;1.98;;;;;;;;;;5024104;28;20326;-43
2023/10/23 04:34:56;;;;;;;5.68;1.90;;;;;;;;;;5027449;28;20187;-43
2023/10/23 04:37:22;;;;;;;3.58;1.42;;;;;;;;;;5034345;28;20183;-43
2023/10/23 04:39:48;;;;;;;2.20;1.63;;;;;;;;;;5029503;28;20176;-43
2023/10/23 04:42:14;;;;;;;3.35;1.70;;;;;;;;;;5034607;28;20188;-43
2023/10/23 04:44:40;;;;;;;5.55;1.60;;;;;;;;;;5029795;28;20180;-43
2023/10/23 04:47:06;;;;;;;3.45;1.65;;;;;;;;;;5026122;28;20196;-43
2023/10/23 04:49:32;;;;;;;3.22;1.67;;;;;;;;;;5030686;28;20176;-43
2023/10/23 04:51:58;;;;;;;6.65;1.95;;;;;;;;;;5030048;28;20208;-43
2023/10/23 04:54:24;;;;;;;3.28;1.45;;;;;;;;;;5034882;28;20263;-43
2023/10/23 04:56:50;;;;;;;2.75;1.27;;;;;;;;;;5025490;28;20179;-43
2023/10/23 04:59:16;;;;;;;1.92;1.20;;;;;;;;;;5033901;28;20172;-43
2023/10/23 05:01:41;;;;;;;4.25;1.45;;;;;;;;;;5028927;28;20618;-43
2023/10/23 05:04:07;;;;;;;2.00;1.30;;;;;;;;;;5027906;28;20235;-43
2023/10/23 05:06:33;;;;;;;4.20;1.90;;;;;;;;;;5036351;28;20227;-43
2023/10/23 05:08:59;;;;;;;2.13;1.20;;;;;;;;;;5036160;28;20184;-43
2023/10/23 05:11:25;;;;;;;1.50;1.40;;;;;;;;;;5026818;28;20610;-43
2023/10/23 05:13:51;;;;;;;3.25;1.60;;;;;;;;;;5035332;28;20575;-43
2023/10/23 05:16:17;;;;;;;2.65;1.60;;;;;;;;;;5033871;28;20455;-43
2023/10/23 05:18:43;;;;;;;2.47;1.42;;;;;;;;;;5033510;28;20165;-43
2023/10/23 05:21:10;;;;;;;2.97;1.33;;;;;;;;;;5025081;28;20279;-43
2023/10/23 05:23:36;;;;;;;2.85;1.63;;;;;;;;;;5036157;28;20211;-43
2023/10/23 05:26:02;;;;;;;2.13;1.02;;;;;;;;;;5028777;28;20195;-43
2023/10/23 05:28:28;;;;;;;2.60;1.65;;;;;;;;;;5033274;28;20183;-43
2023/10/23 05:30:54;;;;;;;4.75;1.60;;;;;;;;;;5028009;28;20179;-43
2023/10/23 05:33:20;;;;;;;2.80;2.17;;;;;;;;;;5034923;28;20290;-44
2023/10/23 05:35:46;;;;;;;4.40;2.70;;;;;;;;;;5030642;28;20439;-43
2023/10/23 05:38:13;;;;;;;2.20;1.80;;;;;;;;;;5028390;28;20449;-43
2023/10/23 05:40:39;;;;;;;3.53;1.75;;;;;;;;;;5024476;28;20244;-43
2023/10/23 05:43:05;;;;;;;3.63;2.03;;;;;;;;;;5022174;28;20212;-43
2023/10/23 05:45:31;;;;;;;3.15;1.92;;;;;;;;;;5035437;28;20646;-43
2023/10/23 05:47:57;;;;;;;2.90;1.95;;;;;;;;;;5034112;28;20284;-43
2023/10/23 05:50:23;;;;;;;4.15;1.80;;;;;;;;;;5027558;28;20212;-43
2023/10/23 05:52:49;;;;;;;4.45;1.77;;;;;;;;;;5026756;28;20246;-43
2023/10/23 05:55:15;;;;;;;4.10;1.95;;;;;;;;;;5026959;28;20471;-43
2023/10/23 05:57:41;;;;;;;2.80;1.95;;;;;;;;;;5034328;28;20176;-43
2023/10/23 06:00:09;;;;;;;3.38;2.20;;;;;;;;;;5028025;28;20483;-43
2023/10/23 06:02:35;;;;;;;2.70;1.60;;;;;;;;;;5035194;28;20188;-43
2023/10/23 06:05:01;;;;;;;3.38;1.92;;;;;;;;;;5025784;28;20261;-43
2023/10/23 06:07:29;;;;;;;1.70;1.60;;;;;;;;;;5033628;28;20789;-43
2023/10/23 06:09:56;;;;;;;3.33;1.75;;;;;;;;;;5025026;28;20223;-43
2023/10/23 06:12:22;;;;;;;2.15;1.70;;;;;;;;;;5027093;28;20192;-43
2023/10/23 06:14:48;;;;;;;2.50;1.80;;;;;;;;;;5033892;28;20191;-43
2023/10/23 06:17:14;;;;;;;3.15;1.95;;;;;;;;;;5026900;28;20189;-43
2023/10/23 06:19:40;;;;;;;4.78;3.28;;;;;;;;;;5030302;28;20192;-43
2023/10/23 06:22:06;;;;;;;3.53;2.53;;;;;;;;;;5022545;28;20188;-44
2023/10/23 06:24:32;;;;;;;4.07;2.40;;;;;;;;;;5026942;28;20184;-43
2023/10/23 06:26:58;;;;;;;3.50;2.65;;;;;;;;;;5024409;28;20171;-43
2023/10/23 06:29:24;;;;;;;3.85;2.72;;;;;;;;;;5033048;28;20239;-43
2023/10/23 06:31:50;;;;;;;5.80;3.10;;;;;;;;;;5027621;28;20208;-43
2023/10/23 06:34:16;;;;;;;6.25;3.30;;;;;;;;;;5033264;28;20188;-43
2023/10/23 06:36:43;;;;;;;5.00;2.85;;;;;;;;;;5030772;28;20180;-43
2023/10/23 06:39:09;;;;;;;6.13;2.92;;;;;;;;;;5033132;28;20176;-43
2023/10/23 06:41:35;;;;;;;7.15;4.00;;;;;;;;;;5017300;28;20192;-43
2023/10/23 06:44:00;;;;;;;4.45;3.00;;;;;;;;;;5033298;28;20198;-43
2023/10/23 06:46:26;;;;;;;4.03;3.03;;;;;;;;;;5031385;28;20186;-43
2023/10/23 06:48:52;;;;;;;5.43;2.85;;;;;;;;;;5024940;28;20192;-43
2023/10/23 06:51:18;;;;;;;3.92;2.50;;;;;;;;;;5029119;28;20191;-43
2023/10/23 06:53:44;;;;;;;2.85;2.33;;;;;;;;;;5028846;28;20207;-43
2023/10/23 06:56:10;;;;;;;2.55;1.98;;;;;;;;;;5030184;28;20187;-43
2023/10/23 06:58:36;;;;;;;3.38;2.10;;;;;;;;;;5031250;28;20203;-43
2023/10/23 07:01:08;;;;;;;3.00;2.20;;;;;;;;;;5022340;28;20198;-43
2023/10/23 07:03:35;;;;;;;3.15;2.08;;;;;;;;;;5030976;28;20195;-43
2023/10/23 07:06:07;;;;;;;2.58;1.88;;;;;;;;;;5033875;28;20179;-43
2023/10/23 07:08:34;;;;;;;4.47;2.10;;;;;;;;;;5025581;28;20871;-43
2023/10/23 07:11:00;;;;;;;3.00;2.15;;;;;;;;;;5028877;28;20175;-43
2023/10/23 07:13:27;;;;;;;4.05;2.00;;;;;;;;;;5031156;28;20207;-43
2023/10/23 07:15:53;;;;;;;3.58;2.03;;;;;;;;;;5026800;28;20498;-43
2023/10/23 07:18:19;;;;;;;3.35;2.17;;;;;;;;;;5032161;28;20184;-43
2023/10/23 07:20:55;;;;;;;3.10;2.08;;;;;;;;;;5028854;28;20258;-43
2023/10/23 07:23:22;;;;;;;2.47;1.80;;;;;;;;;;5031947;28;20573;-43
2023/10/23 07:25:48;;;;;;;4.43;1.88;;;;;;;;;;5033310;28;20180;-43
2023/10/23 07:28:14;;;;;;;2.22;1.80;;;;;;;;;;5027440;28;20198;-43
2023/10/23 07:30:40;;;;;;;3.40;1.90;;;;;;;;;;5025164;28;21430;-43
2023/10/23 07:33:06;;;;;;;3.55;2.08;;;;;;;;;;5028772;28;20463;-43
2023/10/23 07:35:32;;;;;;;4.65;2.03;;;;;;;;;;5028625;28;20184;-43
2023/10/23 07:37:58;;;;;;;2.40;1.95;;;;;;;;;;5029270;28;20179;-43
2023/10/23 07:40:24;;;;;;;5.75;1.95;;;;;;;;;;5018460;28;20199;-43
2023/10/23 07:42:50;;;;;;;5.30;2.00;;;;;;;;;;5031218;28;20474;-43
2023/10/23 07:45:15;;;;;;;3.92;2.13;;;;;;;;;;5028182;28;20192;-43
2023/10/23 07:47:41;;;;;;;4.15;1.80;;;;;;;;;;5027499;28;20200;-43
2023/10/23 07:50:07;;;;;;;4.63;2.08;;;;;;;;;;5023769;28;20177;-43
2023/10/23 07:52:33;;;;;;;3.67;2.05;;;;;;;;;;5029431;28;20212;-43
2023/10/23 07:54:59;;;;;;;3.10;1.92;;;;;;;;;;5026327;28;20233;-43
2023/10/23 07:57:25;;;;;;;3.33;2.08;;;;;;;;;;5032249;28;20179;-43
2023/10/23 07:59:51;;;;;;;3.65;2.20;;;;;;;;;;5030058;28;20238;-43
2023/10/23 08:02:17;;;;;;;3.08;2.00;;;;;;;;;;5028411;28;20184;-43
2023/10/23 08:04:43;;;;;;;3.83;2.08;;;;;;;;;;5025463;28;20235;-43
2023/10/23 08:07:09;;;;;;;3.05;1.70;;;;;;;;;;5028157;28;20615;-43
2023/10/23 08:09:35;;;;;;;5.68;2.85;;;;;;;;;;5020921;28;20564;-43
2023/10/23 08:12:01;;;;;;;3.63;2.65;;;;;;;;;;5033940;28;20195;-43
2023/10/23 08:14:27;;;;;;;2.70;1.60;;;;;;;;;;5028695;28;20255;-43
2023/10/23 08:16:53;;;;;;;2.97;1.48;;;;;;;;;;5028458;28;20184;-43
2023/10/23 08:19:20;;;;;;;3.53;1.77;;;;;;;;;;5030879;28;20463;-43
2023/10/23 08:21:46;;;;;;;3.13;1.58;;;;;;;;;;5029938;28;20248;-43
2023/10/23 08:24:13;;;;;;;4.07;2.15;;;;;;;;;;5036591;28;20168;-43
2023/10/23 08:26:39;;;;;;;1.65;1.50;;;;;;;;;;5036437;28;20310;-43
2023/10/23 08:29:05;;;;;;;3.30;2.40;;;;;;;;;;5036215;28;20225;-43
2023/10/23 08:31:31;;;;;;;3.40;2.00;;;;;;;;;;5036668;28;20226;-43
2023/10/23 08:33:57;;;;;;;2.78;1.85;;;;;;;;;;5034906;28;20294;-43
2023/10/23 08:36:23;;;;;;;1.60;1.50;;;;;;;;;;5036794;28;20176;-43
2023/10/23 08:38:49;;;;;;;2.50;1.67;;;;;;;;;;5036112;28;20578;-43
2023/10/23 08:41:15;;;;;;;4.28;1.90;;;;;;;;;;5034776;28;20203;-44
2023/10/23 08:43:41;;;;;;;2.05;1.80;;;;;;;;;;5036262;28;20188;-43
2023/10/23 08:46:10;;;;;;;2.35;1.70;;;;;;;;;;5036804;28;20210;-43
2023/10/23 08:48:39;;;;;;;2.47;1.52;;;;;;;;;;5034808;28;20184;-43
2023/10/23 08:51:07;;;;;;;2.30;1.50;;;;;;;;;;5030552;28;20180;-43
2023/10/23 08:53:34;;;;;;;3.05;1.85;;;;;;;;;;5035658;28;20195;-43
2023/10/23 08:56:07;;;;;;;2.08;1.73;;;;;;;;;;5035053;28;20234;-43
2023/10/23 08:58:35;;;;;;;2.63;1.50;;;;;;;;;;5036909;28;20610;-43
2023/10/23 09:01:01;;;;;;;1.70;1.25;;;;;;;;;;5036919;28;20282;-44
2023/10/23 09:03:28;;;;;;;4.70;1.55;;;;;;;;;;5024517;28;20678;-43
2023/10/23 09:05:56;;;;;;;1.73;1.15;;;;;;;;;;5030558;28;20230;-43
2023/10/23 09:08:23;;;;;;;2.15;1.23;;;;;;;;;;5030193;28;20184;-43
2023/10/23 09:11:03;;;;;;;3.40;1.40;;;;;;;;;;5034776;28;20455;-44
2023/10/23 09:13:33;;;;;;;2.10;1.10;;;;;;;;;;5036070;28;20211;-43
2023/10/23 09:15:59;;;;;;;1.90;1.55;;;;;;;;;;5036287;28;20478;-43
2023/10/23 09:18:25;;;;;;;2.05;1.23;;;;;;;;;;5031118;28;20183;-43
2023/10/23 09:20:51;;;;;;;1.63;1.38;;;;;;;;;;5027987;28;20188;-43
2023/10/23 09:23:17;;;;;;;1.73;1.40;;;;;;;;;;5021585;28;20196;-43
2023/10/23 09:25:43;;;;;;;2.03;1.40;;;;;;;;;;5030282;28;20195;-43
2023/10/23 09:28:12;;;;;;;1.48;1.15;;;;;;;;;;5031102;28;20469;-43
2023/10/23 09:30:38;;;;;;;2.22;1.20;;;;;;;;;;5029886;28;20176;-44
2023/10/23 09:33:06;;;;;;;1.30;1.02;;;;;;;;;;5033375;28;20209;-43
2023/10/23 09:35:33;;;;;;;3.47;1.15;;;;;;;;;;5028451;28;20211;-43
2023/10/23 09:37:59;;;;;;;2.63;1.10;;;;;;;;;;5022526;28;20539;-43
2023/10/23 09:40:25;;;;;;;1.45;0.93;;;;;;;;;;5021670;28;20183;-43
2023/10/23 09:42:51;;;;;;;3.55;1.00;;;;;;;;;;5025536;28;20633;-44
2023/10/23 09:45:17;;;;;;;1.95;1.33;;;;;;;;;;5020838;28;20176;-44
2023/10/23 09:47:46;;;;;;;1.92;1.17;;;;;;;;;;5031861;28;20458;-43
2023/10/23 09:50:12;;;;;;;3.85;1.23;;;;;;;;;;5026817;28;20581;-43
2023/10/23 09:52:40;;;;;;;2.70;1.23;;;;;;;;;;5034746;28;20203;-43
2023/10/23 09:55:09;;;;;;;3.17;1.27;;;;;;;;;;5029538;28;20179;-44
2023/10/23 09:57:45;;;;;;;1.83;0.82;;;;;;;;;;5027503;28;20543;-43
2023/10/23 10:00:15;;;;;;;3.33;1.20;;;;;;;;;;5033693;28;20529;-43
2023/10/23 10:02:53;;;;;;;1.35;0.88;;;;;;;;;;5027026;28;20230;-43
2023/10/23 10:05:28;;;;;;;1.10;0.93;;;;;;;;;;5027832;28;20583;-44
2023/10/23 10:07:57;;;;;;;1.42;1.13;;;;;;;;;;5033708;28;20183;-44
2023/10/23 10:10:24;;;;;;;2.38;1.02;;;;;;;;;;5025839;28;20195;-43
2023/10/23 10:12:50;;;;;;;2.33;1.05;;;;;;;;;;5020654;28;20215;-43
2023/10/23 10:15:16;;;;;;;2.55;1.10;;;;;;;;;;5030379;28;20179;-44
2023/10/23 10:17:42;;;;;;;4.00;1.40;;;;;;;;;;5032601;28;20527;-44
2023/10/23 10:20:11;;;;;;;1.30;0.88;;;;;;;;;;5023044;28;20176;-43
2023/10/23 10:22:40;;;;;;;1.27;0.88;;;;;;;;;;5031420;28;20274;-44
2023/10/23 10:25:06;;;;;;;1.48;1.00;;;;;;;;;;5026891;28;20169;-44
2023/10/23 10:27:32;;;;;;;1.45;0.98;;;;;;;;;;5030411;28;20191;-44
2023/10/23 10:30:04;;;;;;;1.38;0.73;;;;;;;;;;5032578;28;20187;-43
2023/10/23 10:32:31;;;;;;;1.48;0.80;;;;;;;;;;5034830;28;20206;-44
2023/10/23 10:34:59;;;;;;;1.58;0.68;;;;;;;;;;5029402;28;20225;-43
2023/10/23 10:37:27;;;;;;;1.48;0.50;;;;;;;;;;5027116;28;20536;-44
2023/10/23 10:40:03;;;;;;;1.85;0.68;;;;;;;;;;5032218;28;20198;-44
2023/10/23 10:42:30;;;;;;;2.05;1.00;;;;;;;;;;5030061;28;20206;-44
2023/10/23 10:45:00;;;;;;;1.77;0.70;;;;;;;;;;5028814;28;20191;-44
2023/10/23 10:47:55;;;;;;;1.65;0.70;;;;;;;;;;5029154;28;20245;-44
2023/10/23 10:50:31;;;;;;;0.82;0.60;;;;;;;;;;5018033;28;20811;-44
2023/10/23 10:53:00;;;;;;;2.60;0.90;;;;;;;;;;5032798;28;20199;-44
2023/10/23 10:55:26;;;;;;;1.38;1.10;;;;;;;;;;5028194;28;20180;-44
2023/10/23 10:57:53;;;;;;;2.95;0.98;;;;;;;;;;5026376;28;20245;-44
2023/10/23 11:00:19;;;;;;;4.55;1.05;;;;;;;;;;5028031;28;20187;-50
2023/10/23 11:02:46;;;;;;;3.60;1.00;;;;;;;;;;5025437;28;20203;-47
2023/10/23 11:05:12;;;;;;;2.15;1.25;;;;;;;;;;5034480;28;20466;-50
2023/10/23 11:07:38;;;;;;;4.28;0.90;;;;;;;;;;5024642;28;20199;-48
2023/10/23 11:10:05;;;;;;;2.58;0.95;;;;;;;;;;5028253;28;20200;-48
2023/10/23 11:12:31;;;;;;;3.25;1.17;;;;;;;;;;5030684;28;20218;-51
2023/10/23 11:14:57;;;;;;;3.25;1.00;;;;;;;;;;5027696;28;20192;-48
2023/10/23 11:17:23;;;;;;;3.00;0.90;;;;;;;;;;5032888;28;20214;-48
2023/10/23 11:19:49;;;;;;;8.82;0.93;;;;;;;;;;5020521;28;20464;-48
2023/10/23 11:22:18;;;;;;;1.20;0.85;;;;;;;;;;5020479;28;20219;-48
2023/10/23 11:24:44;;;;;;;2.88;0.80;;;;;;;;;;5018363;28;20195;-49
2023/10/23 11:27:10;;;;;;;3.17;0.93;;;;;;;;;;5025693;28;20207;-48
2023/10/23 11:29:46;;;;;;;2.08;1.08;;;;;;;;;;5028712;28;20173;-49
2023/10/23 11:32:13;;;;;;;2.60;0.98;;;;;;;;;;5025532;28;20207;-49
2023/10/23 11:34:39;;;;;;;2.35;1.15;;;;;;;;;;5027608;28;20267;-48
2023/10/23 11:37:05;;;;;;;4.10;0.88;;;;;;;;;;5032019;28;20225;-48
2023/10/23 11:39:32;;;;;;;2.72;0.77;;;;;;;;;;5032823;28;20211;-49
2023/10/23 11:41:59;;;;;;;1.88;0.90;;;;;;;;;;5027726;28;20587;-49
2023/10/23 11:44:26;;;;;;;1.55;0.90;;;;;;;;;;5028606;28;20273;-49
2023/10/23 11:46:56;;;;;;;2.10;0.90;;;;;;;;;;5031962;28;20203;-48
2023/10/23 11:49:25;;;;;;;1.17;0.70;;;;;;;;;;5034526;28;20192;-48
2023/10/23 11:51:51;;;;;;;2.30;0.82;;;;;;;;;;5034849;28;20183;-49
2023/10/23 11:54:18;;;;;;;2.28;0.70;;;;;;;;;;5034349;28;20472;-49
2023/10/23 11:56:44;;;;;;;2.55;0.90;;;;;;;;;;5022205;28;20172;-49
2023/10/23 11:59:17;;;;;;;0.90;0.68;;;;;;;;;;5030105;28;20172;-49
2023/10/23 12:01:44;;;;;;;7.13;1.42;;;;;;;;;;5029176;28;20199;-48
2023/10/23 12:04:10;;;;;;;2.28;0.90;;;;;;;;;;5034793;28;20259;-48
2023/10/23 12:06:37;;;;;;;1.42;0.63;;;;;;;;;;5037461;28;20262;-48
2023/10/23 12:09:04;;;;;;;0.95;0.60;;;;;;;;;;5030039;28;20219;-48
2023/10/23 12:11:30;;;;;;;1.63;0.80;;;;;;;;;;5028101;28;20237;-48
2023/10/23 12:13:57;;;;;;;1.88;0.77;;;;;;;;;;5030338;28;20211;-49
2023/10/23 12:16:23;;;;;;;1.70;0.80;;;;;;;;;;5032806;28;20180;-48
2023/10/23 12:18:49;;;;;;;1.42;0.70;;;;;;;;;;5030161;28;20685;-48
2023/10/23 12:21:15;;;;;;;1.33;0.77;;;;;;;;;;5036820;28;20191;-48
2023/10/23 12:23:41;;;;;;;1.48;0.73;;;;;;;;;;5030346;28;20184;-49
2023/10/23 12:26:07;;;;;;;2.40;0.90;;;;;;;;;;5028880;28;20511;-49
2023/10/23 12:28:34;;;;;;;2.90;1.30;;;;;;;;;;5029506;28;20193;-48
2023/10/23 12:31:00;;;;;;;1.85;0.77;;;;;;;;;;5031299;28;20694;-48
2023/10/23 12:33:26;;;;;;;0.85;0.68;;;;;;;;;;5023022;28;20472;-48
2023/10/23 12:35:52;;;;;;;1.83;0.70;;;;;;;;;;5029355;28;20234;-49
2023/10/23 12:38:18;;;;;;;1.60;0.73;;;;;;;;;;5031809;28;20238;-49
2023/10/23 12:40:45;;;;;;;1.80;1.02;;;;;;;;;;5035907;28;20610;-48
2023/10/23 12:43:11;;;;;;;4.70;1.23;;;;;;;;;;5022882;28;20180;-48
2023/10/23 12:45:37;;;;;;;1.80;0.90;;;;;;;;;;5032175;28;20471;-48
2023/10/23 12:48:03;;;;;;;1.80;0.68;;;;;;;;;;5027291;28;20730;-48
2023/10/23 12:50:29;;;;;;;1.42;0.73;;;;;;;;;;5033014;28;20454;-48
2023/10/23 12:52:55;;;;;;;2.63;1.00;;;;;;;;;;5031530;28;20201;-48
2023/10/23 12:55:21;;;;;;;3.15;0.82;;;;;;;;;;5036163;28;20168;-48
2023/10/23 12:57:47;;;;;;;0.82;0.70;;;;;;;;;;5026992;28;20563;-48
2023/10/23 13:00:13;;;;;;;1.48;0.90;;;;;;;;;;5034050;28;20206;-48
2023/10/23 13:02:39;;;;;;;1.17;0.80;;;;;;;;;;5033472;28;20191;-47
2023/10/23 13:05:06;;;;;;;2.67;0.80;;;;;;;;;;5030900;28;20188;-49
2023/10/23 13:07:32;;;;;;;2.10;1.08;;;;;;;;;;5035311;28;20184;-48
2023/10/23 13:09:58;;;;;;;1.92;0.80;;;;;;;;;;5029446;28;20192;-48
2023/10/23 13:12:24;;;;;;;2.67;0.95;;;;;;;;;;5032173;28;20207;-48
2023/10/23 13:14:50;;;;;;;1.13;1.00;;;;;;;;;;5031679;28;20182;-48
2023/10/23 13:17:16;;;;;;;1.00;0.77;;;;;;;;;;5035065;28;20180;-48
2023/10/23 13:19:42;;;;;;;3.15;1.25;;;;;;;;;;5030944;28;20206;-48
2023/10/23 13:22:09;;;;;;;1.75;1.17;;;;;;;;;;5032943;28;20514;-48
2023/10/23 13:24:35;;;;;;;1.77;0.82;;;;;;;;;;5032210;28;20191;-48
2023/10/23 13:27:01;;;;;;;1.67;0.90;;;;;;;;;;5035154;28;20192;-49
2023/10/23 13:29:32;;;;;;;2.72;1.20;;;;;;;;;;5030665;28;20409;-48
2023/10/23 13:31:57;;;;;;;1.40;0.75;;;;;;;;;;5030645;28;20560;-48
2023/10/23 13:34:23;;;;;;;1.05;0.80;;;;;;;;;;5033208;28;20254;-48
2023/10/23 13:36:49;;;;;;;2.88;0.90;;;;;;;;;;5033931;28;20172;-48
2023/10/23 13:39:16;;;;;;;0.93;0.80;;;;;;;;;;5021209;28;20291;-48
2023/10/23 13:41:42;;;;;;;2.45;1.02;;;;;;;;;;5025105;28;20176;-48
2023/10/23 13:44:08;;;;;;;2.33;1.15;;;;;;;;;;5031778;28;20483;-48
2023/10/23 13:46:34;;;;;;;2.70;1.40;;;;;;;;;;5024234;28;20183;-48
2023/10/23 13:49:01;;;;;;;3.13;1.42;;;;;;;;;;5035320;28;20206;-48
2023/10/23 13:51:27;;;;;;;2.60;1.17;;;;;;;;;;5030975;28;20187;-48
2023/10/23 13:53:53;;;;;;;3.08;1.30;;;;;;;;;;5028284;28;20196;-48
2023/10/23 13:56:19;;;;;;;3.90;2.50;;;;;;;;;;5034741;28;20563;-48
2023/10/23 13:58:46;;;;;;;2.30;1.50;;;;;;;;;;5034083;28;20184;-48
2023/10/23 14:01:12;;;;;;;2.47;1.40;;;;;;;;;;5023322;28;20219;-48
2023/10/23 14:03:38;;;;;;;2.25;1.25;;;;;;;;;;5030073;28;20255;-48
2023/10/23 14:06:04;;;;;;;4.20;1.38;;;;;;;;;;5033785;28;20194;-48
2023/10/23 14:08:30;;;;;;;3.00;1.40;;;;;;;;;;5033692;28;20211;-48
2023/10/23 14:10:56;;;;;;;3.60;1.20;;;;;;;;;;5026114;28;20210;-48
2023/10/23 14:13:22;;;;;;;2.17;1.33;;;;;;;;;;5031038;28;20211;-48
2023/10/23 14:15:48;;;;;;;1.83;1.20;;;;;;;;;;5032963;28;20585;-48
2023/10/23 14:18:15;;;;;;;2.03;1.05;;;;;;;;;;5029983;28;20180;-48
2023/10/23 14:20:41;;;;;;;3.13;1.13;;;;;;;;;;5028565;28;20624;-48
2023/10/23 14:23:07;;;;;;;2.55;1.00;;;;;;;;;;5027114;28;20450;-48
2023/10/23 14:25:33;;;;;;;2.10;1.10;;;;;;;;;;5029523;28;20266;-48
2023/10/23 14:27:59;;;;;;;2.20;1.40;;;;;;;;;;5033943;28;20223;-48
2023/10/23 14:30:25;;;;;;;4.15;2.03;;;;;;;;;;5028642;28;20210;-48
2023/10/23 14:32:51;;;;;;;20.02;7.45;;;;;;;;;;5020887;28;20196;-48
2023/10/23 14:35:17;;;;;;;20.58;7.32;;;;;;;;;;5031132;28;20566;-49
2023/10/23 14:37:43;;;;;;;14.52;5.85;;;;;;;;;;5027611;28;20470;-48
2023/10/23 14:40:10;;;;;;;15.38;5.53;;;;;;;;;;5027160;28;20191;-48